sensor_id;sensor_type;location;lat;lon;timestamp;P1;durP1;ratioP1;P2;durP2;ratioP2
20995;SDS011;10656;52.200;21.052;2024-01-07T00:01:39;20.93;;;11.23;;
20995;SDS011;10656;52.200;21.052;2024-01-07T00:04:14;20.50;;;12.50;;
20995;SDS011;10656;52.200;21.052;2024-01-07T00:06:43;24.53;;;14.13;;
20995;SDS011;10656;52.200;21.052;2024-01-07T00:09:12;20.53;;;10.83;;
20995;SDS011;10656;52.200;21.052;2024-01-07T00:11:40;22.47;;;12.60;;
20995;SDS011;10656;52.200;21.052;2024-01-07T00:14:10;18.17;;;11.83;;
20995;SDS011;10656;52.200;21.052;2024-01-07T00:16:39;21.77;;;13.83;;
20995;SDS011;10656;52.200;21.052;2024-01-07T00:19:08;20.67;;;13.30;;
20995;SDS011;10656;52.200;21.052;2024-01-07T00:21:39;19.43;;;12.27;;
20995;SDS011;10656;52.200;21.052;2024-01-07T00:24:10;22.87;;;14.37;;
20995;SDS011;10656;52.200;21.052;2024-01-07T00:26:39;15.70;;;10.70;;
20995;SDS011;10656;52.200;21.052;2024-01-07T00:29:09;19.57;;;10.40;;
20995;SDS011;10656;52.200;21.052;2024-01-07T00:31:38;18.50;;;8.50;;
20995;SDS011;10656;52.200;21.052;2024-01-07T00:34:08;18.97;;;11.20;;
20995;SDS011;10656;52.200;21.052;2024-01-07T00:36:37;21.50;;;12.77;;
20995;SDS011;10656;52.200;21.052;2024-01-07T00:39:07;21.57;;;11.27;;
20995;SDS011;10656;52.200;21.052;2024-01-07T00:41:36;17.50;;;10.77;;
20995;SDS011;10656;52.200;21.052;2024-01-07T00:44:05;22.13;;;13.67;;
20995;SDS011;10656;52.200;21.052;2024-01-07T00:46:34;18.33;;;10.83;;
20995;SDS011;10656;52.200;21.052;2024-01-07T00:49:03;23.70;;;14.50;;
20995;SDS011;10656;52.200;21.052;2024-01-07T00:51:32;12.27;;;9.13;;
20995;SDS011;10656;52.200;21.052;2024-01-07T00:54:01;21.23;;;12.83;;
20995;SDS011;10656;52.200;21.052;2024-01-07T00:56:29;26.23;;;14.63;;
20995;SDS011;10656;52.200;21.052;2024-01-07T00:58:58;24.10;;;14.47;;
20995;SDS011;10656;52.200;21.052;2024-01-07T01:01:28;21.73;;;12.17;;
20995;SDS011;10656;52.200;21.052;2024-01-07T01:03:59;16.20;;;11.07;;
20995;SDS011;10656;52.200;21.052;2024-01-07T01:06:27;33.43;;;17.57;;
20995;SDS011;10656;52.200;21.052;2024-01-07T01:08:57;25.30;;;14.43;;
20995;SDS011;10656;52.200;21.052;2024-01-07T01:11:25;25.10;;;15.13;;
20995;SDS011;10656;52.200;21.052;2024-01-07T01:13:54;26.63;;;15.03;;
20995;SDS011;10656;52.200;21.052;2024-01-07T01:16:22;26.43;;;15.30;;
20995;SDS011;10656;52.200;21.052;2024-01-07T01:18:51;23.97;;;14.07;;
20995;SDS011;10656;52.200;21.052;2024-01-07T01:21:22;26.53;;;15.87;;
20995;SDS011;10656;52.200;21.052;2024-01-07T01:23:50;27.87;;;15.93;;
20995;SDS011;10656;52.200;21.052;2024-01-07T01:26:19;20.10;;;12.63;;
20995;SDS011;10656;52.200;21.052;2024-01-07T01:28:48;23.73;;;14.17;;
20995;SDS011;10656;52.200;21.052;2024-01-07T01:31:17;23.73;;;14.33;;
20995;SDS011;10656;52.200;21.052;2024-01-07T01:33:46;20.00;;;11.70;;
20995;SDS011;10656;52.200;21.052;2024-01-07T01:36:15;20.83;;;12.37;;
20995;SDS011;10656;52.200;21.052;2024-01-07T01:38:45;22.03;;;11.87;;
20995;SDS011;10656;52.200;21.052;2024-01-07T01:41:15;22.70;;;13.13;;
20995;SDS011;10656;52.200;21.052;2024-01-07T01:43:44;19.90;;;12.70;;
20995;SDS011;10656;52.200;21.052;2024-01-07T01:46:12;24.20;;;13.73;;
20995;SDS011;10656;52.200;21.052;2024-01-07T01:48:42;19.67;;;12.37;;
20995;SDS011;10656;52.200;21.052;2024-01-07T01:51:11;19.73;;;11.40;;
20995;SDS011;10656;52.200;21.052;2024-01-07T01:53:40;18.73;;;12.33;;
20995;SDS011;10656;52.200;21.052;2024-01-07T01:56:10;20.67;;;11.77;;
20995;SDS011;10656;52.200;21.052;2024-01-07T01:58:39;21.73;;;12.00;;
20995;SDS011;10656;52.200;21.052;2024-01-07T02:01:08;17.63;;;9.80;;
20995;SDS011;10656;52.200;21.052;2024-01-07T02:03:37;19.07;;;9.73;;
20995;SDS011;10656;52.200;21.052;2024-01-07T02:06:06;19.10;;;11.90;;
20995;SDS011;10656;52.200;21.052;2024-01-07T02:08:35;22.77;;;13.30;;
20995;SDS011;10656;52.200;21.052;2024-01-07T02:13:49;19.67;;;12.90;;
20995;SDS011;10656;52.200;21.052;2024-01-07T02:16:17;23.73;;;13.80;;
20995;SDS011;10656;52.200;21.052;2024-01-07T02:18:46;21.47;;;12.97;;
20995;SDS011;10656;52.200;21.052;2024-01-07T02:21:15;21.40;;;13.07;;
20995;SDS011;10656;52.200;21.052;2024-01-07T02:23:44;18.87;;;13.30;;
20995;SDS011;10656;52.200;21.052;2024-01-07T02:26:14;21.47;;;13.17;;
20995;SDS011;10656;52.200;21.052;2024-01-07T02:28:43;16.60;;;9.77;;
20995;SDS011;10656;52.200;21.052;2024-01-07T02:31:11;19.23;;;12.33;;
20995;SDS011;10656;52.200;21.052;2024-01-07T02:33:40;20.03;;;12.63;;
20995;SDS011;10656;52.200;21.052;2024-01-07T02:36:09;15.50;;;10.03;;
20995;SDS011;10656;52.200;21.052;2024-01-07T02:38:37;12.83;;;8.17;;
20995;SDS011;10656;52.200;21.052;2024-01-07T02:41:06;18.97;;;12.10;;
20995;SDS011;10656;52.200;21.052;2024-01-07T02:43:36;15.70;;;9.60;;
20995;SDS011;10656;52.200;21.052;2024-01-07T02:46:05;14.37;;;10.10;;
20995;SDS011;10656;52.200;21.052;2024-01-07T02:48:34;11.03;;;7.00;;
20995;SDS011;10656;52.200;21.052;2024-01-07T02:51:02;18.10;;;9.47;;
20995;SDS011;10656;52.200;21.052;2024-01-07T02:53:33;16.37;;;9.67;;
20995;SDS011;10656;52.200;21.052;2024-01-07T02:56:02;16.40;;;10.53;;
20995;SDS011;10656;52.200;21.052;2024-01-07T02:58:35;16.13;;;10.30;;
20995;SDS011;10656;52.200;21.052;2024-01-07T03:01:07;17.43;;;11.77;;
20995;SDS011;10656;52.200;21.052;2024-01-07T03:03:38;17.33;;;11.47;;
20995;SDS011;10656;52.200;21.052;2024-01-07T03:06:07;19.60;;;11.67;;
20995;SDS011;10656;52.200;21.052;2024-01-07T03:08:35;19.43;;;11.87;;
20995;SDS011;10656;52.200;21.052;2024-01-07T03:11:04;17.23;;;11.70;;
20995;SDS011;10656;52.200;21.052;2024-01-07T03:13:35;19.43;;;12.37;;
20995;SDS011;10656;52.200;21.052;2024-01-07T03:16:04;19.13;;;11.23;;
20995;SDS011;10656;52.200;21.052;2024-01-07T03:18:34;20.67;;;12.47;;
20995;SDS011;10656;52.200;21.052;2024-01-07T03:21:03;16.90;;;10.67;;
20995;SDS011;10656;52.200;21.052;2024-01-07T03:23:32;16.73;;;11.87;;
20995;SDS011;10656;52.200;21.052;2024-01-07T03:26:01;10.90;;;7.60;;
20995;SDS011;10656;52.200;21.052;2024-01-07T03:28:29;15.70;;;11.27;;
20995;SDS011;10656;52.200;21.052;2024-01-07T03:30:59;17.37;;;11.50;;
20995;SDS011;10656;52.200;21.052;2024-01-07T03:33:33;16.40;;;11.47;;
20995;SDS011;10656;52.200;21.052;2024-01-07T03:36:03;16.53;;;11.27;;
20995;SDS011;10656;52.200;21.052;2024-01-07T03:38:35;14.73;;;9.77;;
20995;SDS011;10656;52.200;21.052;2024-01-07T03:41:03;17.13;;;10.77;;
20995;SDS011;10656;52.200;21.052;2024-01-07T03:43:32;15.10;;;10.47;;
20995;SDS011;10656;52.200;21.052;2024-01-07T03:46:02;18.47;;;12.47;;
20995;SDS011;10656;52.200;21.052;2024-01-07T03:48:31;17.47;;;11.10;;
20995;SDS011;10656;52.200;21.052;2024-01-07T03:51:00;20.60;;;11.37;;
20995;SDS011;10656;52.200;21.052;2024-01-07T03:53:29;18.07;;;11.27;;
20995;SDS011;10656;52.200;21.052;2024-01-07T03:55:57;16.10;;;9.93;;
20995;SDS011;10656;52.200;21.052;2024-01-07T03:58:26;18.43;;;11.97;;
20995;SDS011;10656;52.200;21.052;2024-01-07T04:00:55;19.50;;;11.50;;
20995;SDS011;10656;52.200;21.052;2024-01-07T04:03:25;16.07;;;8.87;;
20995;SDS011;10656;52.200;21.052;2024-01-07T04:05:53;17.27;;;9.87;;
20995;SDS011;10656;52.200;21.052;2024-01-07T04:08:22;20.90;;;12.57;;
20995;SDS011;10656;52.200;21.052;2024-01-07T04:10:51;19.63;;;12.30;;
20995;SDS011;10656;52.200;21.052;2024-01-07T04:13:20;16.77;;;11.77;;
20995;SDS011;10656;52.200;21.052;2024-01-07T04:15:48;18.40;;;12.07;;
20995;SDS011;10656;52.200;21.052;2024-01-07T04:18:17;19.53;;;12.10;;
20995;SDS011;10656;52.200;21.052;2024-01-07T04:20:47;17.23;;;11.77;;
20995;SDS011;10656;52.200;21.052;2024-01-07T04:23:16;19.37;;;12.27;;
20995;SDS011;10656;52.200;21.052;2024-01-07T04:25:45;18.97;;;12.60;;
20995;SDS011;10656;52.200;21.052;2024-01-07T04:28:14;18.50;;;12.33;;
20995;SDS011;10656;52.200;21.052;2024-01-07T04:30:42;15.20;;;11.27;;
20995;SDS011;10656;52.200;21.052;2024-01-07T04:33:12;17.93;;;12.00;;
20995;SDS011;10656;52.200;21.052;2024-01-07T04:35:41;16.20;;;10.70;;
20995;SDS011;10656;52.200;21.052;2024-01-07T04:38:11;19.53;;;11.90;;
20995;SDS011;10656;52.200;21.052;2024-01-07T04:40:40;19.73;;;12.63;;
20995;SDS011;10656;52.200;21.052;2024-01-07T04:43:09;17.57;;;11.73;;
20995;SDS011;10656;52.200;21.052;2024-01-07T04:45:37;19.33;;;12.07;;
20995;SDS011;10656;52.200;21.052;2024-01-07T04:48:08;17.80;;;11.93;;
20995;SDS011;10656;52.200;21.052;2024-01-07T04:50:36;17.93;;;11.07;;
20995;SDS011;10656;52.200;21.052;2024-01-07T04:53:05;13.27;;;9.40;;
20995;SDS011;10656;52.200;21.052;2024-01-07T04:55:35;18.20;;;11.27;;
20995;SDS011;10656;52.200;21.052;2024-01-07T04:58:04;16.83;;;10.53;;
20995;SDS011;10656;52.200;21.052;2024-01-07T05:00:33;12.20;;;7.70;;
20995;SDS011;10656;52.200;21.052;2024-01-07T05:03:04;17.47;;;11.13;;
20995;SDS011;10656;52.200;21.052;2024-01-07T05:05:33;17.83;;;11.90;;
20995;SDS011;10656;52.200;21.052;2024-01-07T05:08:03;16.10;;;10.63;;
20995;SDS011;10656;52.200;21.052;2024-01-07T05:10:32;16.00;;;10.57;;
20995;SDS011;10656;52.200;21.052;2024-01-07T05:13:02;16.20;;;11.23;;
20995;SDS011;10656;52.200;21.052;2024-01-07T05:15:32;14.73;;;9.87;;
20995;SDS011;10656;52.200;21.052;2024-01-07T05:18:01;16.20;;;10.30;;
20995;SDS011;10656;52.200;21.052;2024-01-07T05:20:30;15.83;;;11.37;;
20995;SDS011;10656;52.200;21.052;2024-01-07T05:22:59;16.40;;;10.97;;
20995;SDS011;10656;52.200;21.052;2024-01-07T05:25:27;16.37;;;10.00;;
20995;SDS011;10656;52.200;21.052;2024-01-07T05:27:57;16.13;;;10.83;;
20995;SDS011;10656;52.200;21.052;2024-01-07T05:30:27;19.33;;;10.73;;
20995;SDS011;10656;52.200;21.052;2024-01-07T05:32:56;16.47;;;10.97;;
20995;SDS011;10656;52.200;21.052;2024-01-07T05:35:25;14.27;;;9.97;;
20995;SDS011;10656;52.200;21.052;2024-01-07T05:37:54;17.53;;;11.17;;
20995;SDS011;10656;52.200;21.052;2024-01-07T05:40:23;17.47;;;10.80;;
20995;SDS011;10656;52.200;21.052;2024-01-07T05:42:52;18.97;;;11.00;;
20995;SDS011;10656;52.200;21.052;2024-01-07T05:45:20;14.20;;;10.33;;
20995;SDS011;10656;52.200;21.052;2024-01-07T05:47:50;15.13;;;10.60;;
20995;SDS011;10656;52.200;21.052;2024-01-07T05:50:19;19.17;;;11.40;;
20995;SDS011;10656;52.200;21.052;2024-01-07T05:52:51;16.90;;;10.17;;
20995;SDS011;10656;52.200;21.052;2024-01-07T05:55:20;14.93;;;10.17;;
20995;SDS011;10656;52.200;21.052;2024-01-07T05:57:49;13.10;;;9.43;;
20995;SDS011;10656;52.200;21.052;2024-01-07T06:00:17;15.83;;;9.17;;
20995;SDS011;10656;52.200;21.052;2024-01-07T06:02:47;12.43;;;9.57;;
20995;SDS011;10656;52.200;21.052;2024-01-07T06:05:17;16.43;;;10.10;;
20995;SDS011;10656;52.200;21.052;2024-01-07T06:07:46;17.13;;;10.33;;
20995;SDS011;10656;52.200;21.052;2024-01-07T06:10:15;11.73;;;7.00;;
20995;SDS011;10656;52.200;21.052;2024-01-07T06:12:44;11.37;;;7.97;;
20995;SDS011;10656;52.200;21.052;2024-01-07T06:15:12;16.67;;;10.93;;
20995;SDS011;10656;52.200;21.052;2024-01-07T06:17:41;16.70;;;10.80;;
20995;SDS011;10656;52.200;21.052;2024-01-07T06:20:10;16.97;;;10.97;;
20995;SDS011;10656;52.200;21.052;2024-01-07T06:22:41;13.07;;;7.83;;
20995;SDS011;10656;52.200;21.052;2024-01-07T06:25:10;11.90;;;7.53;;
20995;SDS011;10656;52.200;21.052;2024-01-07T06:27:39;18.80;;;11.80;;
20995;SDS011;10656;52.200;21.052;2024-01-07T06:30:08;18.63;;;11.23;;
20995;SDS011;10656;52.200;21.052;2024-01-07T06:32:38;14.33;;;9.43;;
20995;SDS011;10656;52.200;21.052;2024-01-07T06:35:07;16.73;;;11.27;;
20995;SDS011;10656;52.200;21.052;2024-01-07T06:37:36;17.40;;;11.43;;
20995;SDS011;10656;52.200;21.052;2024-01-07T06:40:07;19.53;;;11.73;;
20995;SDS011;10656;52.200;21.052;2024-01-07T06:42:38;11.70;;;8.60;;
20995;SDS011;10656;52.200;21.052;2024-01-07T06:45:08;19.03;;;11.90;;
20995;SDS011;10656;52.200;21.052;2024-01-07T06:47:38;16.47;;;11.70;;
20995;SDS011;10656;52.200;21.052;2024-01-07T06:50:08;17.90;;;11.47;;
20995;SDS011;10656;52.200;21.052;2024-01-07T06:52:37;17.60;;;11.27;;
20995;SDS011;10656;52.200;21.052;2024-01-07T06:55:08;16.67;;;9.27;;
20995;SDS011;10656;52.200;21.052;2024-01-07T06:57:37;17.43;;;10.80;;
20995;SDS011;10656;52.200;21.052;2024-01-07T07:00:06;13.43;;;9.63;;
20995;SDS011;10656;52.200;21.052;2024-01-07T07:02:37;15.83;;;10.43;;
20995;SDS011;10656;52.200;21.052;2024-01-07T07:05:07;14.93;;;10.10;;
20995;SDS011;10656;52.200;21.052;2024-01-07T07:07:36;17.57;;;10.63;;
20995;SDS011;10656;52.200;21.052;2024-01-07T07:10:05;12.27;;;8.13;;
20995;SDS011;10656;52.200;21.052;2024-01-07T07:12:36;16.20;;;10.67;;
20995;SDS011;10656;52.200;21.052;2024-01-07T07:15:06;12.70;;;8.37;;
20995;SDS011;10656;52.200;21.052;2024-01-07T07:17:36;14.60;;;9.93;;
20995;SDS011;10656;52.200;21.052;2024-01-07T07:20:07;16.93;;;10.13;;
20995;SDS011;10656;52.200;21.052;2024-01-07T07:22:36;19.03;;;10.10;;
20995;SDS011;10656;52.200;21.052;2024-01-07T07:25:06;14.93;;;9.97;;
20995;SDS011;10656;52.200;21.052;2024-01-07T07:27:37;14.20;;;9.73;;
20995;SDS011;10656;52.200;21.052;2024-01-07T07:30:05;14.73;;;9.80;;
20995;SDS011;10656;52.200;21.052;2024-01-07T07:32:38;14.80;;;9.83;;
20995;SDS011;10656;52.200;21.052;2024-01-07T07:35:09;13.27;;;7.83;;
20995;SDS011;10656;52.200;21.052;2024-01-07T07:37:38;9.13;;;5.97;;
20995;SDS011;10656;52.200;21.052;2024-01-07T07:40:08;13.03;;;9.53;;
20995;SDS011;10656;52.200;21.052;2024-01-07T07:42:40;14.37;;;8.93;;
20995;SDS011;10656;52.200;21.052;2024-01-07T07:45:10;13.13;;;9.30;;
20995;SDS011;10656;52.200;21.052;2024-01-07T07:47:39;9.37;;;6.40;;
20995;SDS011;10656;52.200;21.052;2024-01-07T07:50:11;5.33;;;4.37;;
20995;SDS011;10656;52.200;21.052;2024-01-07T07:52:41;13.50;;;8.63;;
20995;SDS011;10656;52.200;21.052;2024-01-07T07:55:11;13.50;;;9.97;;
20995;SDS011;10656;52.200;21.052;2024-01-07T07:57:40;10.57;;;6.13;;
20995;SDS011;10656;52.200;21.052;2024-01-07T08:00:08;15.37;;;9.17;;
20995;SDS011;10656;52.200;21.052;2024-01-07T08:02:39;12.83;;;7.03;;
20995;SDS011;10656;52.200;21.052;2024-01-07T08:05:08;16.13;;;8.90;;
20995;SDS011;10656;52.200;21.052;2024-01-07T08:07:37;10.23;;;6.87;;
20995;SDS011;10656;52.200;21.052;2024-01-07T08:10:06;14.90;;;9.47;;
20995;SDS011;10656;52.200;21.052;2024-01-07T08:12:38;15.77;;;9.73;;
20995;SDS011;10656;52.200;21.052;2024-01-07T08:15:07;9.43;;;7.33;;
20995;SDS011;10656;52.200;21.052;2024-01-07T08:17:36;11.13;;;7.87;;
20995;SDS011;10656;52.200;21.052;2024-01-07T08:20:07;16.53;;;9.77;;
20995;SDS011;10656;52.200;21.052;2024-01-07T08:22:37;11.00;;;8.23;;
20995;SDS011;10656;52.200;21.052;2024-01-07T08:25:06;15.80;;;9.97;;
20995;SDS011;10656;52.200;21.052;2024-01-07T08:27:38;14.50;;;9.83;;
20995;SDS011;10656;52.200;21.052;2024-01-07T08:30:08;16.57;;;10.73;;
20995;SDS011;10656;52.200;21.052;2024-01-07T08:32:40;12.13;;;8.53;;
20995;SDS011;10656;52.200;21.052;2024-01-07T08:35:09;10.83;;;6.93;;
20995;SDS011;10656;52.200;21.052;2024-01-07T08:37:38;6.17;;;4.87;;
20995;SDS011;10656;52.200;21.052;2024-01-07T08:40:07;9.87;;;7.13;;
20995;SDS011;10656;52.200;21.052;2024-01-07T08:42:40;11.00;;;6.97;;
20995;SDS011;10656;52.200;21.052;2024-01-07T08:45:09;7.63;;;5.63;;
20995;SDS011;10656;52.200;21.052;2024-01-07T08:47:38;8.00;;;5.53;;
20995;SDS011;10656;52.200;21.052;2024-01-07T08:50:10;13.07;;;8.67;;
20995;SDS011;10656;52.200;21.052;2024-01-07T08:52:40;15.23;;;9.13;;
20995;SDS011;10656;52.200;21.052;2024-01-07T08:55:08;16.07;;;10.10;;
20995;SDS011;10656;52.200;21.052;2024-01-07T08:57:39;12.43;;;9.50;;
20995;SDS011;10656;52.200;21.052;2024-01-07T09:00:08;8.20;;;5.67;;
20995;SDS011;10656;52.200;21.052;2024-01-07T09:02:38;15.23;;;10.30;;
20995;SDS011;10656;52.200;21.052;2024-01-07T09:05:09;12.43;;;7.50;;
20995;SDS011;10656;52.200;21.052;2024-01-07T09:07:39;11.00;;;7.60;;
20995;SDS011;10656;52.200;21.052;2024-01-07T09:10:08;13.77;;;9.70;;
20995;SDS011;10656;52.200;21.052;2024-01-07T09:12:40;14.47;;;9.03;;
20995;SDS011;10656;52.200;21.052;2024-01-07T09:15:09;14.90;;;8.73;;
20995;SDS011;10656;52.200;21.052;2024-01-07T09:17:38;17.03;;;10.53;;
20995;SDS011;10656;52.200;21.052;2024-01-07T09:20:07;14.57;;;9.90;;
20995;SDS011;10656;52.200;21.052;2024-01-07T09:22:37;16.23;;;9.83;;
20995;SDS011;10656;52.200;21.052;2024-01-07T09:25:06;12.97;;;8.50;;
20995;SDS011;10656;52.200;21.052;2024-01-07T09:27:35;15.53;;;10.13;;
20995;SDS011;10656;52.200;21.052;2024-01-07T09:30:06;14.57;;;9.67;;
20995;SDS011;10656;52.200;21.052;2024-01-07T09:32:38;14.33;;;9.50;;
20995;SDS011;10656;52.200;21.052;2024-01-07T09:35:06;12.33;;;8.63;;
20995;SDS011;10656;52.200;21.052;2024-01-07T09:37:38;18.13;;;11.10;;
20995;SDS011;10656;52.200;21.052;2024-01-07T09:40:07;18.33;;;10.77;;
20995;SDS011;10656;52.200;21.052;2024-01-07T09:42:37;16.90;;;10.87;;
20995;SDS011;10656;52.200;21.052;2024-01-07T09:45:08;16.43;;;10.57;;
20995;SDS011;10656;52.200;21.052;2024-01-07T09:47:41;13.47;;;9.50;;
20995;SDS011;10656;52.200;21.052;2024-01-07T09:50:13;14.90;;;10.03;;
20995;SDS011;10656;52.200;21.052;2024-01-07T09:52:43;14.30;;;10.07;;
20995;SDS011;10656;52.200;21.052;2024-01-07T09:55:15;11.73;;;8.30;;
20995;SDS011;10656;52.200;21.052;2024-01-07T09:57:50;12.03;;;7.60;;
20995;SDS011;10656;52.200;21.052;2024-01-07T10:00:20;14.53;;;10.13;;
20995;SDS011;10656;52.200;21.052;2024-01-07T10:02:49;14.27;;;9.70;;
20995;SDS011;10656;52.200;21.052;2024-01-07T10:05:17;11.37;;;6.87;;
20995;SDS011;10656;52.200;21.052;2024-01-07T10:07:47;14.57;;;10.40;;
20995;SDS011;10656;52.200;21.052;2024-01-07T10:10:14;9.77;;;6.97;;
20995;SDS011;10656;52.200;21.052;2024-01-07T10:12:44;14.23;;;10.63;;
20995;SDS011;10656;52.200;21.052;2024-01-07T10:15:14;14.97;;;9.53;;
20995;SDS011;10656;52.200;21.052;2024-01-07T10:17:45;15.47;;;10.10;;
20995;SDS011;10656;52.200;21.052;2024-01-07T10:20:15;15.73;;;7.70;;
20995;SDS011;10656;52.200;21.052;2024-01-07T10:22:46;10.53;;;7.57;;
20995;SDS011;10656;52.200;21.052;2024-01-07T10:25:18;8.07;;;5.77;;
20995;SDS011;10656;52.200;21.052;2024-01-07T10:27:47;6.93;;;5.13;;
20995;SDS011;10656;52.200;21.052;2024-01-07T10:30:16;6.77;;;4.77;;
20995;SDS011;10656;52.200;21.052;2024-01-07T10:32:47;7.90;;;4.50;;
20995;SDS011;10656;52.200;21.052;2024-01-07T10:35:16;10.70;;;7.70;;
20995;SDS011;10656;52.200;21.052;2024-01-07T10:37:49;14.70;;;9.67;;
20995;SDS011;10656;52.200;21.052;2024-01-07T10:40:18;16.07;;;10.20;;
20995;SDS011;10656;52.200;21.052;2024-01-07T10:42:47;18.07;;;11.70;;
20995;SDS011;10656;52.200;21.052;2024-01-07T10:45:17;18.10;;;12.00;;
20995;SDS011;10656;52.200;21.052;2024-01-07T10:47:48;17.73;;;10.87;;
20995;SDS011;10656;52.200;21.052;2024-01-07T10:50:18;16.73;;;11.17;;
20995;SDS011;10656;52.200;21.052;2024-01-07T10:52:49;19.87;;;10.47;;
20995;SDS011;10656;52.200;21.052;2024-01-07T10:55:19;13.67;;;10.03;;
20995;SDS011;10656;52.200;21.052;2024-01-07T10:57:51;14.63;;;10.43;;
20995;SDS011;10656;52.200;21.052;2024-01-07T11:00:21;22.20;;;12.07;;
20995;SDS011;10656;52.200;21.052;2024-01-07T11:02:55;14.00;;;9.00;;
20995;SDS011;10656;52.200;21.052;2024-01-07T11:05:31;17.60;;;11.43;;
20995;SDS011;10656;52.200;21.052;2024-01-07T11:08:06;18.43;;;10.80;;
20995;SDS011;10656;52.200;21.052;2024-01-07T11:10:43;12.37;;;7.93;;
20995;SDS011;10656;52.200;21.052;2024-01-07T11:13:32;18.17;;;11.67;;
20995;SDS011;10656;52.200;21.052;2024-01-07T11:16:02;10.80;;;8.07;;
20995;SDS011;10656;52.200;21.052;2024-01-07T11:18:33;12.80;;;8.50;;
20995;SDS011;10656;52.200;21.052;2024-01-07T11:21:02;7.73;;;6.20;;
20995;SDS011;10656;52.200;21.052;2024-01-07T11:23:33;10.40;;;7.10;;
20995;SDS011;10656;52.200;21.052;2024-01-07T11:26:04;8.33;;;6.80;;
20995;SDS011;10656;52.200;21.052;2024-01-07T11:28:42;4.43;;;4.03;;
20995;SDS011;10656;52.200;21.052;2024-01-07T11:31:12;7.93;;;4.17;;
20995;SDS011;10656;52.200;21.052;2024-01-07T11:33:43;7.03;;;5.10;;
20995;SDS011;10656;52.200;21.052;2024-01-07T11:36:13;7.87;;;6.77;;
20995;SDS011;10656;52.200;21.052;2024-01-07T11:38:43;11.00;;;7.30;;
20995;SDS011;10656;52.200;21.052;2024-01-07T11:41:16;14.20;;;8.97;;
20995;SDS011;10656;52.200;21.052;2024-01-07T11:43:53;9.77;;;7.40;;
20995;SDS011;10656;52.200;21.052;2024-01-07T11:46:31;11.67;;;8.43;;
20995;SDS011;10656;52.200;21.052;2024-01-07T11:49:03;8.27;;;5.87;;
20995;SDS011;10656;52.200;21.052;2024-01-07T11:51:31;9.77;;;7.90;;
20995;SDS011;10656;52.200;21.052;2024-01-07T11:54:02;12.97;;;6.10;;
20995;SDS011;10656;52.200;21.052;2024-01-07T11:56:31;10.97;;;7.13;;
20995;SDS011;10656;52.200;21.052;2024-01-07T11:59:00;9.60;;;7.13;;
20995;SDS011;10656;52.200;21.052;2024-01-07T12:01:33;11.03;;;8.37;;
20995;SDS011;10656;52.200;21.052;2024-01-07T12:04:03;14.47;;;8.93;;
20995;SDS011;10656;52.200;21.052;2024-01-07T12:06:34;6.57;;;5.33;;
20995;SDS011;10656;52.200;21.052;2024-01-07T12:09:03;13.33;;;8.70;;
20995;SDS011;10656;52.200;21.052;2024-01-07T12:11:32;14.27;;;9.80;;
20995;SDS011;10656;52.200;21.052;2024-01-07T12:14:01;10.47;;;8.07;;
20995;SDS011;10656;52.200;21.052;2024-01-07T12:16:30;9.27;;;6.97;;
20995;SDS011;10656;52.200;21.052;2024-01-07T12:18:59;12.77;;;9.27;;
20995;SDS011;10656;52.200;21.052;2024-01-07T12:21:30;10.97;;;8.20;;
20995;SDS011;10656;52.200;21.052;2024-01-07T12:23:59;8.30;;;6.37;;
20995;SDS011;10656;52.200;21.052;2024-01-07T12:26:28;8.43;;;6.23;;
20995;SDS011;10656;52.200;21.052;2024-01-07T12:29:00;7.97;;;6.57;;
20995;SDS011;10656;52.200;21.052;2024-01-07T12:31:31;8.77;;;4.80;;
20995;SDS011;10656;52.200;21.052;2024-01-07T12:34:02;9.37;;;6.03;;
20995;SDS011;10656;52.200;21.052;2024-01-07T12:36:32;12.50;;;6.57;;
20995;SDS011;10656;52.200;21.052;2024-01-07T12:39:02;11.73;;;8.90;;
20995;SDS011;10656;52.200;21.052;2024-01-07T12:41:32;13.33;;;10.00;;
20995;SDS011;10656;52.200;21.052;2024-01-07T12:44:01;16.00;;;11.23;;
20995;SDS011;10656;52.200;21.052;2024-01-07T12:46:30;12.57;;;9.53;;
20995;SDS011;10656;52.200;21.052;2024-01-07T12:48:59;16.00;;;10.63;;
20995;SDS011;10656;52.200;21.052;2024-01-07T12:51:28;13.67;;;9.47;;
20995;SDS011;10656;52.200;21.052;2024-01-07T12:53:59;11.33;;;6.87;;
20995;SDS011;10656;52.200;21.052;2024-01-07T12:56:30;8.83;;;7.10;;
20995;SDS011;10656;52.200;21.052;2024-01-07T12:58:59;13.40;;;8.93;;
20995;SDS011;10656;52.200;21.052;2024-01-07T13:01:27;12.73;;;9.00;;
20995;SDS011;10656;52.200;21.052;2024-01-07T13:03:58;16.00;;;11.73;;
20995;SDS011;10656;52.200;21.052;2024-01-07T13:06:27;16.90;;;11.73;;
20995;SDS011;10656;52.200;21.052;2024-01-07T13:08:59;14.37;;;9.47;;
20995;SDS011;10656;52.200;21.052;2024-01-07T13:11:32;12.10;;;7.63;;
20995;SDS011;10656;52.200;21.052;2024-01-07T13:14:00;13.83;;;9.17;;
20995;SDS011;10656;52.200;21.052;2024-01-07T13:16:30;13.47;;;8.03;;
20995;SDS011;10656;52.200;21.052;2024-01-07T13:19:00;15.23;;;8.93;;
20995;SDS011;10656;52.200;21.052;2024-01-07T13:21:31;11.43;;;8.60;;
20995;SDS011;10656;52.200;21.052;2024-01-07T13:24:06;11.53;;;8.20;;
20995;SDS011;10656;52.200;21.052;2024-01-07T13:26:35;11.17;;;7.77;;
20995;SDS011;10656;52.200;21.052;2024-01-07T13:29:04;7.63;;;5.30;;
20995;SDS011;10656;52.200;21.052;2024-01-07T13:31:32;13.47;;;10.07;;
20995;SDS011;10656;52.200;21.052;2024-01-07T13:34:02;6.93;;;5.93;;
20995;SDS011;10656;52.200;21.052;2024-01-07T13:36:32;12.40;;;8.87;;
20995;SDS011;10656;52.200;21.052;2024-01-07T13:39:01;12.33;;;7.93;;
20995;SDS011;10656;52.200;21.052;2024-01-07T13:41:31;14.47;;;8.93;;
20995;SDS011;10656;52.200;21.052;2024-01-07T13:44:00;8.60;;;5.57;;
20995;SDS011;10656;52.200;21.052;2024-01-07T13:46:33;10.60;;;6.97;;
20995;SDS011;10656;52.200;21.052;2024-01-07T13:49:06;11.47;;;6.63;;
20995;SDS011;10656;52.200;21.052;2024-01-07T13:51:36;12.67;;;9.20;;
20995;SDS011;10656;52.200;21.052;2024-01-07T13:54:06;10.17;;;6.80;;
20995;SDS011;10656;52.200;21.052;2024-01-07T13:56:43;8.87;;;6.90;;
20995;SDS011;10656;52.200;21.052;2024-01-07T13:59:14;7.80;;;5.83;;
20995;SDS011;10656;52.200;21.052;2024-01-07T14:01:44;7.33;;;6.07;;
20995;SDS011;10656;52.200;21.052;2024-01-07T14:04:13;8.23;;;6.03;;
20995;SDS011;10656;52.200;21.052;2024-01-07T14:06:43;11.57;;;9.20;;
20995;SDS011;10656;52.200;21.052;2024-01-07T14:09:14;9.63;;;6.10;;
20995;SDS011;10656;52.200;21.052;2024-01-07T14:11:46;11.83;;;6.90;;
20995;SDS011;10656;52.200;21.052;2024-01-07T14:14:16;14.90;;;9.70;;
20995;SDS011;10656;52.200;21.052;2024-01-07T14:16:46;14.40;;;10.17;;
20995;SDS011;10656;52.200;21.052;2024-01-07T14:19:16;15.40;;;10.40;;
20995;SDS011;10656;52.200;21.052;2024-01-07T14:21:51;17.70;;;11.43;;
20995;SDS011;10656;52.200;21.052;2024-01-07T14:24:44;16.90;;;10.63;;
20995;SDS011;10656;52.200;21.052;2024-01-07T14:27:15;18.97;;;12.20;;
20995;SDS011;10656;52.200;21.052;2024-01-07T14:29:44;14.30;;;9.53;;
20995;SDS011;10656;52.200;21.052;2024-01-07T14:32:41;20.47;;;13.10;;
20995;SDS011;10656;52.200;21.052;2024-01-07T14:35:11;21.57;;;13.20;;